Jemez Springs, Valles Caldera, New Mexico Weather observations

Data are for 10 minute period ending at time listed.
 Day   Time   Solar   Ave.   Ave.  Ave.  Vector  Max.   Baro.   Total    
  of    of     Rad.   Air    Rel.  Wind   Wind   Wind  Press.  Precip.   
Year   Day            Temp.  Hum.  Speed  Dir.   Gust                    
2014   (MST)  Kw/m2    F      %     mph   deg.    mph    mb.     in.     
-------------------------------------------------------------------------
 263   18:30   0.00   78.8    30    6.2   246    19.1   810.8    0.00 
 263   18:40   0.00   78.4    31    8.2   236    16.7   811.0    0.00 
 263   18:50   0.00   78.2    31    5.6   233    14.3   811.1    0.00 
 263   19:00   0.00   77.8    32    5.3   223    11.3   811.4    0.00 
 263   19:10   0.00   77.4    33    7.9   223    18.5   811.5    0.00 
 263   19:20   0.00   77.0    34    5.5   229    14.3   811.6    0.00 
 263   19:30   0.00   76.5    35    7.2   227    12.5   811.7    0.00 
 263   19:40   0.00   76.1    36    7.7   235    13.7   811.8    0.00 
 263   19:50   0.00   75.6    38    6.3   265    12.5   812.1    0.00 
 263   20:00   0.00   72.9    47    5.6    43     9.0   812.2    0.00 
 263   20:10   0.00   71.0    52    5.4    15     9.0   812.2    0.00 
 263   20:20   0.00   70.0    55    4.8    29     9.0   812.3    0.00 
 263   20:30   0.00   69.2    57    4.4    18     9.0   812.4    0.00 
 263   20:40   0.00   68.6    58    3.7    24     7.8   812.6    0.00 
 263   20:50   0.00   68.3    56    3.5    43     7.8   812.7    0.00 
 263   21:00   0.00   67.6    59    5.5    14    11.3   812.8    0.00 
 263   21:10   0.00   67.3    59    5.0    26    10.2   812.8    0.00 
 263   21:20   0.00   66.9    60    4.5    23     7.8   812.9    0.00 
 263   21:30   0.00   66.4    60    4.7    30     7.2   813.1    0.00 
 263   21:40   0.00   65.8    61    5.1    30     9.0   813.2    0.00 
 263   21:50   0.00   65.4    62    4.5    33     7.2   813.3    0.00 
 263   22:00   0.00   65.3    61    4.4    12     8.4   813.3    0.00 
 263   22:10   0.00   65.4    60    3.3    15     6.6   813.5    0.00 
 263   22:20   0.00   65.3    60    1.1   344     3.6   813.5    0.00 
 263   22:30   0.00   65.7    59    4.0    18     9.0   813.5    0.00 
 263   22:40   0.00   68.1    53    4.8   236    11.3   813.6    0.00 
 263   22:50   0.00   69.0    52    4.3   241    11.9   813.7    0.00 
 263   23:00   0.00   69.3    51    4.0    31    11.3   813.8    0.00 
 263   23:10   0.00   65.8    58    4.2    35     7.8   813.8    0.00 
 263   23:20   0.00   64.7    60    3.0    25     7.2   813.8    0.00 
 263   23:30   0.00   63.8    62    4.4    31     9.0   814.0    0.00 
 263   23:40   0.00   63.1    64    3.9    24     7.5   814.0    0.00 
 263   23:50   0.00   62.8    65    4.1    30     8.4   814.1    0.00 
 264    0:00   0.00   62.4    65    3.3    38     6.3   814.1    0.00 
 264    0:10   0.00   62.2    66    3.0    22     6.0   814.1    0.00 
 264    0:20   0.00   61.7    67    2.9    33     4.8   814.1    0.00 
 264    0:30   0.00   61.6    68    2.6    15     4.8   814.1    0.00 
 264    0:40   0.00   61.5    68    3.4    39     8.4   814.2    0.00 
 264    0:50   0.00   61.5    68    3.9    32     6.6   814.2    0.00 
 264    1:00   0.00   61.5    69    1.5     7     6.0   814.2    0.00 
 264    1:10   0.00   61.3    69    3.1    23     6.6   814.1    0.00 
 264    1:20   0.00   61.1    70    2.5    31     4.2   814.0    0.00 
 264    1:30   0.00   60.7    70    2.5     9     5.4   814.0    0.00 
 264    1:40   0.00   60.9    70    2.8    35     5.4   814.1    0.00 
 264    1:50   0.00   61.1    70    1.9     9     5.7   814.0    0.00 
 264    2:00   0.00   60.8    70    1.6    28     4.2   814.0    0.00 
 264    2:10   0.00   60.3    71    1.1   346     3.6   814.0    0.00 
 264    2:20   0.00   59.8    72    0.2    39     1.8   814.1    0.00 
 264    2:30   0.00   59.6    74    0.0    31     1.8   814.1    0.00 
 264    2:40   0.00   59.7    74    2.7   360     6.0   814.1    0.00 
 264    2:50   0.00   60.1    74    1.6    16     4.2   814.1    0.00 
 264    3:00   0.00   60.5    73    3.5    12     7.2   814.1    0.00 
 264    3:10   0.00   60.8    72    1.9    27     4.8   814.1    0.00 
 264    3:20   0.00   61.2    72    2.5    20     6.6   814.1    0.00 
 264    3:30   0.00   61.3    72    2.8    22     6.0   814.1    0.00 
 264    3:40   0.00   61.1    72    2.7     2     5.4   814.1    0.00 
 264    3:50   0.00   60.7    73    3.3    33     7.2   814.1    0.00 
 264    4:00   0.00   60.3    74    2.4    18     5.4   814.1    0.00 
 264    4:10   0.00   60.0    76    2.3    19     4.8   814.1    0.00 
 264    4:20   0.00   59.7    76    1.4    11     3.0   814.3    0.00 
 264    4:30   0.00   59.3    77    2.2    14     4.2   814.3    0.00 
 264    4:40   0.00   58.7    78    1.8    32     3.6   814.4    0.00 
 264    4:50   0.00   58.6    79    1.3     4     4.2   814.6    0.00 
 264    5:00   0.00   58.7    79    1.7    27     4.2   814.7    0.00 
 264    5:10   0.00   58.5    79    1.6    28     4.2   814.7    0.00 
 264    5:20   0.00   58.1    80    2.2    31     4.8   814.8    0.00 
 264    5:30   0.00   57.6    81    2.4    26     4.2   815.0    0.00 
 264    5:40   0.00   57.6    81    2.6    26     6.0   815.1    0.00 
 264    5:50   0.00   57.6    82    3.4    22     6.0   815.2    0.00 
 264    6:00   0.00   57.6    82    2.9    15     5.4   815.3    0.00 
 264    6:10   0.01   57.5    82    2.9    23     6.0   815.4    0.00 
 264    6:20   0.02   57.5    82    2.1    30     5.4   815.5    0.00 
 264    6:30   0.04   57.5    82    3.0    41     5.4   815.7    0.00 
 264    6:40   0.04   57.7    82    3.2    24     4.8   815.7    0.00 
 264    6:50   0.06   58.0    81    4.0    30     6.6   815.8    0.00 
 264    7:00   0.07   58.4    80    4.5    34     7.2   816.0    0.00 
 264    7:10   0.09   59.3    79    3.4    23     6.6   816.0    0.00 
 264    7:20   0.10   60.3    78    4.3    30     9.0   816.0    0.00 
 264    7:30   0.10   61.2    76    3.4    23     6.0   816.0    0.00 
 264    7:40   0.14   62.2    74    4.5    22     9.9   816.0    0.00 
 264    7:50   0.17   64.4    72    1.3   340     3.6   816.0    0.00 
 264    8:00   0.20   66.6    67    2.4    53     4.8   816.0    0.00 
 264    8:10   0.29   67.6    64    3.1    20     6.6   815.9    0.00 
 264    8:20   0.51   70.0    57    5.0   186    11.3   815.8    0.00 
 264    8:30   0.53   71.4    54    7.2   203    18.5   815.7    0.00 
 264    8:40   0.54   72.4    50    7.4   208    15.5   815.6    0.00 
 264    8:50   0.54   72.3    50    5.0   198    10.8   815.6    0.00 
 264    9:00   0.68   73.3    47    7.4   208    15.5   815.7    0.00 
 264    9:10   0.64   74.6    44    6.9   208    16.7   815.7    0.00 
 264    9:20   0.70   73.6    44    7.9   192    19.7   815.7    0.00 
 264    9:30   0.37   74.2    44    4.8   205     9.6   815.9    0.00 
 264    9:40   0.40   72.5    45   11.0   204    25.0   815.9    0.00 
 264    9:50   0.63   73.0    44    9.2   198    19.7   815.9    0.00 
 264   10:00   0.70   74.6    43    9.2   194    16.1   815.8    0.00 
 264   10:10   0.63   74.2    43    7.7   196    20.3   815.9    0.00 
 264   10:20   0.41   74.7    42    7.4   209    20.3   815.8    0.00 
 264   10:30   0.61   74.6    42   10.0   218    19.1   815.9    0.00 
 264   10:40   0.87   74.7    41    9.6   202    21.5   815.8    0.00 
 264   10:50   0.89   76.0    38    7.9   205    16.7   815.7    0.00 
 264   11:00   0.64   75.8    38    6.2   232    15.5   815.6    0.00 
 264   11:10   0.90   77.1    34    7.7   183    22.7   815.5    0.00 
 264   11:20   0.92   77.8    33    5.6   162    18.5   815.5    0.00 
 264   11:30   0.92   78.3    31    9.2   236    21.5   815.2    0.00 
 264   11:40   0.90   78.0    31    7.5   124    19.1   815.1    0.00 
 264   11:50   0.63   78.1    30    8.4   249    18.5   814.9    0.00 
 264   12:00   0.84   79.2    29   12.3   214    22.1   814.7    0.00 
 264   12:10   0.56   79.5    29   11.4   220    20.9   814.7    0.00 
 264   12:20   0.87   78.0    31    8.4   194    19.1   814.6    0.00 
 264   12:30   0.72   78.6    30   13.6   200    26.8   814.3    0.00 
 264   12:40   0.76   78.0    31    8.5   211    16.7   814.2    0.00 
 264   12:50   0.80   78.5    30   10.3   197    19.7   814.1    0.00 
 264   13:00   0.74   79.0    30   10.2   212    19.1   813.9    0.00 
 264   13:10   0.51   78.5    30    8.3   206    19.1   813.8    0.00 
 264   13:20   0.92   79.3    30   11.7   202    23.3   813.6    0.00 
 264   13:30   0.81   79.8    29   11.2   204    20.3   813.5    0.00 
 264   13:40   0.80   79.2    30   13.9   219    32.2   813.6    0.00 
 264   13:50   0.80   79.6    29   10.1   206    22.1   813.5    0.00 
 264   14:00   0.64   79.8    29    7.3   208    17.9   813.5    0.00 
 264   14:10   0.35   79.1    29    7.4   193    16.7   813.5    0.00 
 264   14:20   0.19   78.1    30    6.6   208    15.5   813.5    0.00 
 264   14:30   0.16   77.3    31    8.2   203    16.1   813.4    0.00 
 264   14:40   0.19   76.7    32    8.2   149    17.9   813.4    0.00 
 264   14:50   0.23   77.3    32    2.6   207     9.6   813.2    0.00 
 264   15:00   0.24   77.1    32   10.8   203    19.1   813.2    0.00 
 264   15:10   0.24   77.0    32    8.3   214    14.9   813.1    0.00 
 264   15:20   0.40   77.6    32    7.6   173    15.5   812.9    0.00 
 264   15:30   0.63   79.2    30    7.4   162    16.1   813.0    0.00 
 264   15:40   0.30   78.9    30    8.9   200    20.3   813.0    0.00 
 264   15:50   0.37   77.4    32    9.7   198    18.5   813.0    0.00 
 264   16:00   0.20   77.3    32    6.8   186    13.7   813.0    0.00 
 264   16:10   0.20   76.7    32    9.2   218    20.9   813.1    0.00 
 264   16:20   0.18   76.8    31    8.2   233    16.7   813.1    0.00 
 264   16:30   0.12   76.6    31    6.2   217    15.2   813.1    0.00 
 264   16:40   0.10   76.0    32    8.6   196    14.3   813.1    0.00 
 264   16:50   0.10   75.9    33    7.8   190    17.9   813.1    0.00 
 264   17:00   0.08   75.9    33    5.8   199    11.9   813.2    0.00 
 264   17:10   0.05   75.7    34    8.5   202    17.9   813.1    0.00 
 264   17:20   0.03   75.1    36    9.7   193    19.7   813.2    0.00 
 264   17:30   0.02   74.4    39    6.8   188    13.7   813.3    0.00 
 264   17:40   0.02   74.0    40    9.3   202    17.3   813.4    0.00 
 264   17:50   0.01   73.5    41    8.2   198    15.5   813.3    0.00 
 264   18:00   0.01   73.3    41    7.5   195    14.3   813.5    0.00 
 264   18:10   0.00   73.0    43    8.7   199    14.3   813.7    0.00 
 264   18:20   0.00   72.6    45    6.1   185    13.7   813.7    0.00 

Return to Jemez Springs, Valles Caldera graphs page.


Western Regional Climate Center,wrcc@dri.edu